CYPX

Details ICAO CYPX (YPX)
Name PUVIRNITUQ
Region Canada
Timezone America/Montreal (UTC-4.0)
Plans Departing 11
Arriving 15
Stats Elevation 74 ft / 23 m (AMSL)
Location 60.050418° -77.286945°
Runways 1
Magnetic Variation 19.838° W
Sunrise 2018-05-22 08:16:50 UTC / 2018-05-22 04:16:50 Local
Sunset 2018-05-23 01:57:41 UTC / 2018-05-22 21:57:41 Local
Advertisement - Login to hide

Runways

ID Width Length Bearing (true) Bearing (mag) Surface Threshold Offset Overrun Length
01 100 ft / 30 m 4,971 ft / 1,515 m 343.44° 3.28° Gravel 0 ft / 0 m 0 ft / 0 m
19 100 ft / 30 m 4,971 ft / 1,515 m 163.44° 183.28° Gravel 0 ft / 0 m 0 ft / 0 m

Map

Weather


0- 5 10 15 20 25 30 35+ Temperature / ° C

Clouds and Precipitation
Forecast for 2018-05-22 18:00 UTC. Updated 3 hours ago

Ground ~20,000 ft ~40,000 ft Winds

METAR

CYPX 221935Z AUTO 30015KT 9SM -SN SCT018 SCT023 OVC033 M04/M07 A3009 RMK SLP193

TAF

TAF CYPX 221739Z 2218/2306 32010KT P6SM -SN SCT015 OVC030 TEMPO 2218/2306 21/2SM -SHSN SCT006 OVC015 RMK FCST BASED ON AUTO OBS. NXT FCST BY 230000Z

Frequencies

Unicom 122.10 MHz CTAF MF
Tower 122.10 MHz AFLD RDO
Warning: Do not use this data for real-world aviation or navigation. No guarantee of current accuracy is given.